Time;durP1;ratioP1;P1;durP2;ratioP2;P2;SDS_P1;SDS_P2;PMS_P1;PMS_P2;Temp;Humidity;BMP_temperature;BMP_pressure;BME280_temperature;BME280_humidity;BME280_pressure;Samples;Min_cycle;Max_cycle;Signal;HPM_P1;HPM_P2
2023/06/08 00:00:20;;;;;;;15.68;6.00;;;;;;;18.53;58.80;101722.78;5113376;28;20051;-62
2023/06/08 00:02:46;;;;;;;14.02;5.63;;;;;;;18.54;59.21;101729.03;5113591;28;20045;-62
2023/06/08 00:05:13;;;;;;;13.63;5.80;;;;;;;18.52;59.04;101725.47;5116982;28;20031;-62
2023/06/08 00:07:40;;;;;;;12.52;5.80;;;;;;;18.43;59.55;101728.25;5116993;28;20039;-62
2023/06/08 00:10:08;;;;;;;19.05;5.97;;;;;;;18.30;59.66;101724.75;5116783;28;20045;-63
2023/06/08 00:12:34;;;;;;;14.20;5.93;;;;;;;18.30;59.73;101718.53;5117001;28;20106;-62
2023/06/08 00:14:59;;;;;;;12.05;6.03;;;;;;;18.29;60.06;101727.47;5116704;28;20049;-62
2023/06/08 00:17:25;;;;;;;13.27;5.70;;;;;;;18.32;59.90;101728.28;5116673;28;20446;-62
2023/06/08 00:19:52;;;;;;;14.52;6.35;;;;;;;18.29;60.11;101731.03;5116477;28;20048;-62
2023/06/08 00:22:18;;;;;;;14.90;6.05;;;;;;;18.20;60.67;101725.69;5116461;28;20434;-62
2023/06/08 00:24:43;;;;;;;14.45;5.95;;;;;;;18.37;60.68;101723.81;5116803;28;20031;-63
2023/06/08 00:27:09;;;;;;;12.05;5.82;;;;;;;18.36;60.52;101723.81;5116420;28;20047;-62
2023/06/08 00:29:34;;;;;;;17.83;6.05;;;;;;;18.29;60.53;101725.66;5116709;28;20110;-62
2023/06/08 00:32:00;;;;;;;17.63;6.32;;;;;;;18.21;60.67;101722.16;5116663;28;20477;-62
2023/06/08 00:34:27;;;;;;;12.85;6.03;;;;;;;18.17;60.89;101728.41;5116491;28;20361;-62
2023/06/08 00:36:52;;;;;;;12.90;5.97;;;;;;;18.10;61.06;101724.88;5116023;28;20062;-62
2023/06/08 00:39:18;;;;;;;16.15;6.40;;;;;;;18.01;61.48;101720.47;5116478;28;20043;-62
2023/06/08 00:41:43;;;;;;;19.98;6.38;;;;;;;17.92;61.92;101719.66;5116161;28;20059;-62
2023/06/08 00:44:09;;;;;;;22.92;6.60;;;;;;;17.93;61.66;101711.59;5116260;28;20040;-62
2023/06/08 00:46:38;;;;;;;13.65;6.05;;;;;;;17.84;61.80;101721.47;5116264;28;20354;-62
2023/06/08 00:49:07;;;;;;;17.50;6.28;;;;;;;17.78;61.98;101719.72;5097808;28;20056;-62
2023/06/08 00:51:40;;;;;;;14.73;6.22;;;;;;;17.80;62.01;101717.94;5116324;28;20110;-62
2023/06/08 00:54:06;;;;;;;18.42;5.88;;;;;;;17.77;62.17;101705.47;5116246;28;20033;-62
2023/06/08 00:56:33;;;;;;;13.63;6.07;;;;;;;17.72;62.11;101704.56;5115825;28;20529;-62
2023/06/08 00:59:02;;;;;;;16.05;6.03;;;;;;;17.64;62.62;101706.38;5115784;28;20462;-62
2023/06/08 01:01:29;;;;;;;16.15;6.35;;;;;;;17.55;63.17;101703.75;5116025;28;20031;-62
2023/06/08 01:04:05;;;;;;;14.48;6.13;;;;;;;17.47;63.41;101700.22;5116035;28;20036;-62
2023/06/08 01:06:36;;;;;;;13.00;5.85;;;;;;;17.58;63.30;101697.50;5115898;28;20031;-63
2023/06/08 01:09:22;;;;;;;14.25;5.88;;;;;;;17.56;62.89;101701.97;5115819;28;20039;-62
2023/06/08 01:12:06;;;;;;;15.32;6.28;;;;;;;17.42;63.62;101708.25;5115621;28;20020;-63
2023/06/08 01:14:41;;;;;;;16.33;6.80;;;;;;;17.30;63.93;101704.72;5115526;28;20027;-63
2023/06/08 01:17:09;;;;;;;14.68;6.10;;;;;;;17.42;63.94;101699.34;5115556;28;20081;-63
2023/06/08 01:20:08;;;;;;;17.67;6.30;;;;;;;17.48;63.57;101704.69;5115433;28;20431;-63
2023/06/08 01:23:07;;;;;;;21.00;6.30;;;;;;;17.42;63.79;101702.91;5115596;28;20035;-63
2023/06/08 01:25:35;;;;;;;16.52;6.20;;;;;;;17.31;64.08;101706.53;5115632;28;20118;-63
2023/06/08 01:28:12;;;;;;;13.25;6.20;;;;;;;17.21;64.31;101709.22;5115542;28;20028;-62
2023/06/08 01:30:41;;;;;;;15.55;6.60;;;;;;;17.17;64.81;101701.22;5115637;28;20039;-63
2023/06/08 01:33:09;;;;;;;14.68;6.57;;;;;;;17.21;64.59;101703.88;5115437;28;20381;-62
2023/06/08 01:35:35;;;;;;;12.25;5.80;;;;;;;17.21;64.46;101697.63;5115349;28;20024;-62
2023/06/08 01:38:09;;;;;;;14.90;6.60;;;;;;;17.12;64.81;101692.31;5114991;28;20026;-62
2023/06/08 01:40:41;;;;;;;17.15;6.50;;;;;;;17.13;64.90;101697.69;5115039;28;20032;-62
2023/06/08 01:43:09;;;;;;;14.70;6.45;;;;;;;17.15;64.69;101695.00;5115066;28;20050;-63
2023/06/08 01:45:40;;;;;;;15.70;6.28;;;;;;;17.09;65.05;101695.91;5115013;28;20046;-62
2023/06/08 01:48:07;;;;;;;13.93;6.10;;;;;;;17.08;64.75;101694.09;5114980;28;20032;-63
2023/06/08 01:50:34;;;;;;;15.68;6.03;;;;;;;16.99;65.14;101684.34;5096924;28;20160;-63
2023/06/08 01:53:00;;;;;;;17.30;6.50;;;;;;;16.95;65.46;101681.69;5114817;28;20035;-62
2023/06/08 01:55:27;;;;;;;17.25;6.63;;;;;;;16.87;65.97;101680.81;5115079;28;20043;-63
2023/06/08 01:57:53;;;;;;;16.60;6.55;;;;;;;16.86;65.83;101673.69;5114613;28;20385;-61
2023/06/08 02:00:20;;;;;;;12.55;6.25;;;;;;;16.82;66.20;101672.81;5114575;28;20023;-61
2023/06/08 02:02:46;;;;;;;16.48;6.28;;;;;;;16.74;66.22;101679.94;5114569;28;20049;-62
2023/06/08 02:05:14;;;;;;;21.02;7.25;;;;;;;16.72;66.34;101679.94;5114528;28;20031;-62
2023/06/08 02:07:41;;;;;;;14.55;6.65;;;;;;;16.68;66.36;101683.47;5114384;28;20105;-62
2023/06/08 02:10:08;;;;;;;14.32;6.72;;;;;;;16.60;66.61;101684.38;5114451;28;20085;-62
2023/06/08 02:12:33;;;;;;;16.95;6.93;;;;;;;16.56;66.57;101675.47;5114297;28;20027;-62
2023/06/08 02:14:59;;;;;;;16.85;6.75;;;;;;;16.62;66.41;101675.50;5114351;28;20055;-63
2023/06/08 02:17:27;;;;;;;15.30;6.60;;;;;;;16.65;66.59;101680.81;5114419;28;20429;-63
2023/06/08 02:19:56;;;;;;;13.75;6.72;;;;;;;16.58;66.89;101679.06;5114180;28;20043;-62
2023/06/08 02:22:22;;;;;;;16.23;6.78;;;;;;;16.57;66.69;101676.34;5114207;28;20106;-62
2023/06/08 02:24:48;;;;;;;16.17;6.90;;;;;;;16.48;67.08;101677.25;5114210;28;20039;-63
2023/06/08 02:27:14;;;;;;;16.05;6.85;;;;;;;16.43;67.13;101679.03;5095359;28;20488;-62
2023/06/08 02:29:40;;;;;;;18.33;7.03;;;;;;;16.41;67.09;101684.38;5096013;28;20060;-63
2023/06/08 02:32:06;;;;;;;17.77;6.80;;;;;;;16.35;67.59;101683.47;5114032;28;20477;-62
2023/06/08 02:34:32;;;;;;;19.30;7.03;;;;;;;16.33;67.43;101680.81;5114175;28;20027;-63
2023/06/08 02:36:58;;;;;;;16.48;6.82;;;;;;;16.27;67.72;101692.38;5114104;28;20076;-62
2023/06/08 02:39:23;;;;;;;17.33;7.38;;;;;;;16.25;67.89;101686.16;5113905;28;20020;-63
2023/06/08 02:41:49;;;;;;;16.08;7.13;;;;;;;16.26;67.72;101689.69;5113850;28;20096;-62
2023/06/08 02:44:15;;;;;;;15.45;6.82;;;;;;;16.29;67.79;101684.38;5114170;28;20469;-62
2023/06/08 02:46:40;;;;;;;16.02;7.22;;;;;;;16.16;68.22;101682.59;5113837;28;20027;-62
2023/06/08 02:49:06;;;;;;;17.27;6.63;;;;;;;16.31;67.66;101687.91;5113768;28;20032;-62
2023/06/08 02:51:31;;;;;;;16.67;6.95;;;;;;;16.17;68.25;101687.03;5114004;28;20531;-63
2023/06/08 02:53:57;;;;;;;16.42;7.03;;;;;;;16.07;68.28;101688.81;5114002;28;20393;-63
2023/06/08 02:56:24;;;;;;;18.80;7.18;;;;;;;16.04;68.54;101688.78;5095528;28;20020;-62
2023/06/08 02:58:49;;;;;;;14.68;6.70;;;;;;;15.96;68.58;101687.88;5113657;28;20047;-62
2023/06/08 03:01:15;;;;;;;16.02;7.05;;;;;;;16.03;68.92;101687.91;5113555;28;20024;-63
2023/06/08 03:03:42;;;;;;;19.00;7.45;;;;;;;15.99;68.86;101690.56;5113777;28;20020;-62
2023/06/08 03:06:09;;;;;;;20.95;7.53;;;;;;;15.93;69.13;101682.53;5113273;28;20032;-62
2023/06/08 03:08:39;;;;;;;16.98;7.53;;;;;;;15.95;69.05;101680.78;5113441;28;20027;-62
2023/06/08 03:11:04;;;;;;;14.15;7.03;;;;;;;16.01;68.74;101675.44;5113585;28;20389;-62
2023/06/08 03:13:29;;;;;;;17.52;7.70;;;;;;;15.97;69.03;101676.31;5113397;28;20020;-63
2023/06/08 03:15:55;;;;;;;15.95;7.68;;;;;;;15.92;69.02;101676.31;5113370;28;20034;-63
2023/06/08 03:18:22;;;;;;;13.10;7.35;;;;;;;15.88;69.20;101671.88;5113558;28;20024;-63
2023/06/08 03:20:51;;;;;;;18.20;7.32;;;;;;;15.87;69.35;101677.19;5113563;28;20112;-62
2023/06/08 03:23:22;;;;;;;17.45;7.50;;;;;;;15.76;69.51;101674.53;5113297;28;20046;-63
2023/06/08 03:25:49;;;;;;;14.77;7.57;;;;;;;15.77;69.76;101677.19;5113283;28;20032;-62
2023/06/08 03:28:15;;;;;;;22.10;8.38;;;;;;;15.78;69.71;101678.97;5113531;28;20020;-62
2023/06/08 03:30:41;;;;;;;16.75;7.95;;;;;;;15.78;69.42;101678.06;5113469;28;20023;-62
2023/06/08 03:33:06;;;;;;;15.02;7.80;;;;;;;15.83;69.22;101681.63;5113217;28;20046;-63
2023/06/08 03:35:32;;;;;;;13.65;7.05;;;;;;;15.77;69.43;101682.50;5113231;28;20028;-63
2023/06/08 03:37:57;;;;;;;18.58;7.88;;;;;;;15.79;69.94;101685.16;5115604;28;20084;-64
2023/06/08 03:40:23;;;;;;;17.25;7.80;;;;;;;15.82;69.35;101684.31;5117467;28;20080;-63
2023/06/08 03:42:50;;;;;;;18.10;8.20;;;;;;;15.83;69.56;101681.63;5117215;28;20023;-63
2023/06/08 03:45:16;;;;;;;14.93;7.82;;;;;;;15.78;69.88;101688.72;5117222;28;20199;-62
2023/06/08 03:47:42;;;;;;;16.27;7.90;;;;;;;15.84;69.59;101679.84;5117239;28;20026;-60
2023/06/08 03:50:07;;;;;;;15.85;8.07;;;;;;;15.79;69.85;101685.16;5117286;28;20019;-62
2023/06/08 03:52:33;;;;;;;15.40;7.95;;;;;;;15.88;69.71;101685.19;5116980;28;20024;-63
2023/06/08 03:54:59;;;;;;;14.88;7.57;;;;;;;15.90;69.29;101682.56;5116979;28;20024;-63
2023/06/08 03:57:24;;;;;;;18.83;7.45;;;;;;;15.89;69.26;101678.13;5117055;28;20015;-62
2023/06/08 03:59:50;;;;;;;18.15;8.13;;;;;;;15.77;69.83;101681.63;5116976;28;20106;-62
2023/06/08 04:02:15;;;;;;;17.73;8.40;;;;;;;15.71;70.17;101684.25;5116911;28;20026;-63
2023/06/08 04:04:44;;;;;;;17.17;8.50;;;;;;;15.68;70.05;101684.28;5116891;28;20477;-62
2023/06/08 04:07:10;;;;;;;20.15;8.30;;;;;;;15.69;70.24;101686.03;5116647;28;20396;-62
2023/06/08 04:09:36;;;;;;;17.58;7.90;;;;;;;15.60;70.58;101678.88;5117140;28;20033;-62
2023/06/08 04:12:01;;;;;;;16.95;7.90;;;;;;;15.63;70.42;101680.63;5116767;28;20553;-62
2023/06/08 04:14:26;;;;;;;14.02;7.93;;;;;;;15.64;70.41;101680.69;5116997;28;20415;-62
2023/06/08 04:16:52;;;;;;;15.32;8.27;;;;;;;15.59;70.63;101676.19;5116677;28;20024;-62
2023/06/08 04:19:19;;;;;;;18.35;7.95;;;;;;;15.63;70.66;101677.97;5116350;28;20485;-62
2023/06/08 04:21:44;;;;;;;18.48;8.02;;;;;;;15.68;70.40;101679.81;5116807;28;20100;-62
2023/06/08 04:24:10;;;;;;;16.55;7.65;;;;;;;15.81;70.04;101685.19;5116474;28;20039;-62
2023/06/08 04:26:36;;;;;;;16.10;7.80;;;;;;;15.69;70.37;101680.72;5109989;28;20028;-63
2023/06/08 04:29:03;;;;;;;16.77;7.85;;;;;;;15.73;70.46;101679.84;5096023;28;20028;-67
2023/06/08 04:31:28;;;;;;;18.20;8.35;;;;;;;15.77;69.95;101676.31;5096341;28;20024;-63
2023/06/08 04:33:54;;;;;;;21.42;8.40;;;;;;;15.68;70.35;101677.16;5095925;28;20031;-62
2023/06/08 04:36:20;;;;;;;16.17;8.48;;;;;;;15.66;70.39;101670.03;5095723;28;20473;-62
2023/06/08 04:38:46;;;;;;;17.52;8.57;;;;;;;15.66;70.61;101672.69;5095881;28;20031;-63
2023/06/08 04:41:11;;;;;;;16.83;8.75;;;;;;;15.64;70.73;101674.44;5095689;28;20474;-62
2023/06/08 04:43:37;;;;;;;21.85;8.88;;;;;;;15.62;70.87;101673.53;5096055;28;20032;-63
2023/06/08 04:46:04;;;;;;;17.52;7.80;;;;;;;15.76;71.06;101674.53;5095815;28;20044;-62
2023/06/08 04:48:33;;;;;;;22.17;8.63;;;;;;;15.73;70.42;101670.06;5095010;28;20031;-63
2023/06/08 04:51:01;;;;;;;19.35;8.90;;;;;;;15.75;70.25;101670.94;5095705;28;20127;-62
2023/06/08 04:53:33;;;;;;;18.67;8.82;;;;;;;15.61;70.97;101672.66;5095623;28;20046;-63
2023/06/08 04:55:59;;;;;;;15.52;8.90;;;;;;;15.73;70.97;101674.50;5095416;28;20039;-63
2023/06/08 04:58:28;;;;;;;18.83;9.00;;;;;;;15.73;71.11;101671.84;5095465;28;20025;-62
2023/06/08 05:00:54;;;;;;;16.45;8.35;;;;;;;15.87;70.42;101674.53;5077261;28;20028;-62
2023/06/08 05:03:23;;;;;;;20.98;9.40;;;;;;;15.90;70.33;101669.22;5095400;28;20020;-62
2023/06/08 05:05:49;;;;;;;20.25;9.40;;;;;;;15.91;70.35;101676.31;5095358;28;20046;-62
2023/06/08 05:08:15;;;;;;;19.25;8.98;;;;;;;15.99;69.96;101666.56;5095253;28;20024;-63
2023/06/08 05:10:40;;;;;;;17.42;8.48;;;;;;;16.04;69.67;101667.47;5095246;28;20308;-62
2023/06/08 05:13:06;;;;;;;13.20;8.50;;;;;;;16.18;69.08;101672.81;5095162;28;20030;-62
2023/06/08 05:15:31;;;;;;;17.80;9.00;;;;;;;16.28;68.77;101671.94;5095239;28;20032;-63
2023/06/08 05:17:57;;;;;;;16.13;8.93;;;;;;;16.23;68.89;101671.94;5095427;28;20034;-62
2023/06/08 05:20:25;;;;;;;16.55;9.07;;;;;;;16.27;68.96;101675.47;5094941;28;20079;-63
2023/06/08 05:22:50;;;;;;;19.88;9.05;;;;;;;16.35;68.13;101672.81;5095283;28;20024;-62
2023/06/08 05:25:16;;;;;;;16.77;8.65;;;;;;;16.31;68.09;101677.25;5076831;28;20043;-62
2023/06/08 05:27:42;;;;;;;17.08;9.05;;;;;;;16.40;67.72;101673.69;5094940;28;20024;-63
2023/06/08 05:30:08;;;;;;;19.52;8.85;;;;;;;16.41;67.78;101671.06;5076779;28;20435;-62
2023/06/08 05:32:33;;;;;;;19.52;9.10;;;;;;;16.48;67.23;101663.91;5094851;28;20542;-62
2023/06/08 05:35:00;;;;;;;16.10;8.30;;;;;;;16.72;67.38;101673.69;5094757;28;20028;-62
2023/06/08 05:37:26;;;;;;;16.38;8.48;;;;;;;16.87;66.50;101664.78;5094607;28;20028;-62
2023/06/08 05:39:51;;;;;;;18.05;8.45;;;;;;;17.01;65.35;101663.00;5094781;28;20481;-62
2023/06/08 05:42:16;;;;;;;20.60;8.60;;;;;;;16.99;64.88;101664.75;5094603;28;20111;-62
2023/06/08 05:44:42;;;;;;;17.00;8.43;;;;;;;17.06;65.28;101657.63;5094525;28;20020;-63
2023/06/08 05:47:07;;;;;;;19.10;9.20;;;;;;;17.14;65.03;101655.84;5094635;28;20025;-62
2023/06/08 05:49:33;;;;;;;17.85;8.80;;;;;;;17.23;65.14;101661.13;5094568;28;20024;-62
2023/06/08 05:51:58;;;;;;;16.88;8.65;;;;;;;17.32;64.58;101653.09;5094514;28;20498;-62
2023/06/08 05:54:23;;;;;;;17.70;8.82;;;;;;;17.47;64.57;101654.78;5094403;28;20031;-63
2023/06/08 05:56:50;;;;;;;18.40;8.80;;;;;;;17.74;63.36;101656.47;5094289;28;20461;-62
2023/06/08 05:59:15;;;;;;;18.42;8.60;;;;;;;17.85;62.50;101662.63;5094311;28;20039;-63
2023/06/08 06:01:41;;;;;;;18.13;8.88;;;;;;;17.99;62.37;101654.53;5092998;28;20032;-62
2023/06/08 06:04:06;;;;;;;16.00;8.27;;;;;;;18.12;60.95;101647.31;5094494;28;20032;-63
2023/06/08 06:06:32;;;;;;;19.92;8.48;;;;;;;18.19;61.53;101655.25;5094270;28;20370;-62
2023/06/08 06:08:58;;;;;;;16.35;8.35;;;;;;;18.36;61.02;101655.13;5093975;28;20024;-63
2023/06/08 06:11:23;;;;;;;19.63;8.93;;;;;;;18.45;60.27;101654.16;5093701;28;20024;-62
2023/06/08 06:13:49;;;;;;;21.25;8.60;;;;;;;18.58;59.46;101654.94;5094052;28;20024;-63
2023/06/08 06:16:14;;;;;;;17.48;8.63;;;;;;;18.68;59.41;101652.19;5094231;28;20478;-63
2023/06/08 06:18:40;;;;;;;16.05;8.88;;;;;;;18.85;59.05;101652.03;5093877;28;20462;-62
2023/06/08 06:21:05;;;;;;;20.90;8.93;;;;;;;19.01;58.38;101661.69;5093641;28;20109;-63
2023/06/08 06:23:30;;;;;;;18.02;8.48;;;;;;;19.18;58.64;101650.75;5093735;28;20032;-62
2023/06/08 06:25:56;;;;;;;21.15;8.45;;;;;;;19.31;57.98;101658.63;5094095;28;20433;-62
2023/06/08 06:28:21;;;;;;;16.30;8.23;;;;;;;19.53;57.26;101654.81;5093710;28;20035;-63
2023/06/08 06:30:46;;;;;;;22.15;8.55;;;;;;;19.74;56.88;101661.66;5093770;28;20068;-63
2023/06/08 06:33:12;;;;;;;20.85;9.00;;;;;;;19.85;56.36;101659.72;5093821;28;20385;-62
2023/06/08 06:35:37;;;;;;;13.93;8.23;;;;;;;19.94;55.68;101664.97;5093524;28;20071;-62
2023/06/08 06:38:03;;;;;;;21.75;9.07;;;;;;;19.89;55.72;101649.84;5093161;28;20378;-62
2023/06/08 06:40:28;;;;;;;20.00;9.07;;;;;;;20.09;54.86;101657.59;5093600;28;20031;-63
2023/06/08 06:42:54;;;;;;;21.10;9.18;;;;;;;20.17;54.23;101656.56;5093463;28;20397;-63
2023/06/08 06:45:20;;;;;;;19.08;9.45;;;;;;;20.13;54.34;101652.16;5093466;28;20035;-63
2023/06/08 06:47:45;;;;;;;24.55;9.95;;;;;;;20.28;54.41;101656.38;5093601;28;20020;-63
2023/06/08 06:50:11;;;;;;;18.40;9.27;;;;;;;20.31;54.09;101659.03;5093415;28;20039;-63
2023/06/08 06:52:36;;;;;;;23.65;9.40;;;;;;;20.49;53.54;101657.84;5093430;28;20024;-63
2023/06/08 06:55:03;;;;;;;12.82;8.05;;;;;;;20.74;52.95;101659.19;5093576;28;20058;-63
2023/06/08 06:57:31;;;;;;;18.35;8.10;;;;;;;20.94;52.72;101666.88;5093252;28;20028;-63
2023/06/08 06:59:57;;;;;;;18.50;9.13;;;;;;;21.06;52.26;101663.06;5093347;28;20030;-62
2023/06/08 07:02:23;;;;;;;18.55;9.35;;;;;;;21.12;51.93;101667.44;5093235;28;20074;-63
2023/06/08 07:04:52;;;;;;;21.65;9.98;;;;;;;21.28;51.07;101668.88;5093295;28;20125;-63
2023/06/08 07:07:18;;;;;;;21.60;10.38;;;;;;;21.45;50.74;101663.19;5093337;28;20170;-63
2023/06/08 07:09:43;;;;;;;18.88;10.27;;;;;;;21.60;50.82;101665.56;5093353;28;20107;-62
2023/06/08 07:12:09;;;;;;;17.75;9.48;;;;;;;21.72;50.17;101672.47;5092737;28;20382;-62
2023/06/08 07:14:35;;;;;;;18.13;9.35;;;;;;;21.79;49.95;101667.81;5093084;28;20495;-62
2023/06/08 07:17:00;;;;;;;21.52;9.40;;;;;;;21.92;49.97;101674.69;5093120;28;20111;-63
2023/06/08 07:19:25;;;;;;;17.17;8.95;;;;;;;21.99;49.71;101668.25;5092709;28;20051;-63
2023/06/08 07:21:52;;;;;;;18.48;9.13;;;;;;;22.22;49.57;101668.63;5093271;28;20020;-63
2023/06/08 07:24:18;;;;;;;15.00;9.90;;;;;;;22.38;49.22;101658.34;5093075;28;20493;-63
2023/06/08 07:26:45;;;;;;;20.08;10.13;;;;;;;22.54;48.29;101664.25;5092782;28;20098;-63
2023/06/08 07:29:11;;;;;;;24.10;10.10;;;;;;;22.62;47.50;101670.31;5092864;28;20547;-61
2023/06/08 07:31:39;;;;;;;20.88;10.38;;;;;;;22.71;47.81;101666.50;5093123;28;20032;-61
2023/06/08 07:34:04;;;;;;;15.90;9.55;;;;;;;22.97;47.73;101668.53;5092684;28;20375;-61
2023/06/08 07:36:31;;;;;;;17.60;10.05;;;;;;;23.07;46.99;101661.94;5092987;28;20062;-60
2023/06/08 07:38:57;;;;;;;21.77;9.05;;;;;;;23.28;47.45;101659.56;5092856;28;20036;-63
2023/06/08 07:41:25;;;;;;;19.15;9.90;;;;;;;23.21;47.82;101661.53;5092681;28;20024;-60
2023/06/08 07:43:50;;;;;;;18.70;10.18;;;;;;;23.24;47.18;101658.75;5092733;28;20027;-60
2023/06/08 07:46:15;;;;;;;18.42;10.98;;;;;;;23.40;46.55;101652.00;5092951;28;20033;-60
2023/06/08 07:48:41;;;;;;;21.60;10.80;;;;;;;23.54;45.82;101662.38;5092869;28;20385;-61
2023/06/08 07:51:06;;;;;;;16.92;10.70;;;;;;;23.52;46.68;101648.06;5092705;28;20020;-61
2023/06/08 07:53:36;;;;;;;20.00;10.38;;;;;;;23.62;47.67;101656.75;5092669;28;20047;-61
2023/06/08 07:56:02;;;;;;;18.25;10.15;;;;;;;23.93;46.61;101654.00;5092881;28;20081;-61
2023/06/08 07:58:28;;;;;;;19.27;9.93;;;;;;;23.97;45.56;101653.84;5092856;28;20020;-60
2023/06/08 08:00:53;;;;;;;21.52;11.23;;;;;;;24.01;44.55;101649.22;5092685;28;20078;-60
2023/06/08 08:03:19;;;;;;;21.85;10.45;;;;;;;24.18;45.13;101651.38;5093068;28;20111;-61
2023/06/08 08:05:44;;;;;;;17.52;10.23;;;;;;;24.42;45.07;101652.44;5092861;28;20048;-61
2023/06/08 08:08:10;;;;;;;16.58;9.73;;;;;;;24.60;44.20;101654.47;5092309;28;20518;-61
2023/06/08 08:10:35;;;;;;;21.35;10.43;;;;;;;24.70;44.02;101649.63;5092607;28;20056;-61
2023/06/08 08:13:01;;;;;;;18.13;10.10;;;;;;;24.78;43.76;101655.66;5092611;28;20358;-61
2023/06/08 08:15:26;;;;;;;15.85;9.60;;;;;;;25.05;44.52;101652.88;5092297;28;20036;-62
2023/06/08 08:17:52;;;;;;;18.83;10.40;;;;;;;25.16;42.42;101656.13;5074386;28;20021;-60
2023/06/08 08:20:17;;;;;;;18.88;10.02;;;;;;;25.37;41.91;101655.31;5092264;28;20093;-61
2023/06/08 08:22:43;;;;;;;16.58;9.57;;;;;;;25.43;42.34;101651.47;5092385;28;20086;-61
2023/06/08 08:25:08;;;;;;;15.52;10.00;;;;;;;25.57;41.40;101650.97;5095192;28;20032;-61
2023/06/08 08:27:34;;;;;;;13.75;9.77;;;;;;;25.62;42.35;101647.13;5095860;28;20056;-61
2023/06/08 08:29:59;;;;;;;17.92;10.73;;;;;;;25.60;41.51;101657.13;5095980;28;20024;-62
2023/06/08 08:32:25;;;;;;;18.83;10.27;;;;;;;25.64;41.91;101645.22;5096298;28;20047;-62
2023/06/08 08:34:50;;;;;;;17.90;9.50;;;;;;;25.99;41.47;101645.69;5096138;28;20531;-62
2023/06/08 08:37:17;;;;;;;18.20;9.90;;;;;;;26.07;40.99;101648.06;5095689;28;20393;-62
2023/06/08 08:39:42;;;;;;;16.80;9.80;;;;;;;26.08;40.74;101644.41;5077839;28;20449;-62
2023/06/08 08:42:11;;;;;;;19.27;9.65;;;;;;;26.02;40.73;101642.84;5095675;28;20060;-62
2023/06/08 08:44:38;;;;;;;17.98;9.57;;;;;;;26.17;40.86;101644.94;5095721;28;20036;-62
2023/06/08 08:47:05;;;;;;;16.30;9.35;;;;;;;26.21;41.68;101646.56;5095700;28;20455;-62
2023/06/08 08:49:36;;;;;;;15.10;8.82;;;;;;;26.17;41.24;101644.94;5095901;28;20025;-61
2023/06/08 08:52:02;;;;;;;17.25;8.73;;;;;;;26.01;41.45;101642.94;5095635;28;20058;-62
2023/06/08 08:54:33;;;;;;;16.80;9.82;;;;;;;26.02;40.93;101645.56;5095585;28;20115;-61
2023/06/08 08:56:59;;;;;;;17.88;9.50;;;;;;;25.97;40.93;101634.91;5095457;28;20096;-62
2023/06/08 08:59:28;;;;;;;18.17;8.90;;;;;;;26.18;41.97;101621.44;5095657;28;20158;-62
2023/06/08 09:01:57;;;;;;;15.80;8.90;;;;;;;26.38;40.59;101626.91;5095431;28;20533;-62
2023/06/08 09:04:23;;;;;;;15.63;8.57;;;;;;;26.53;40.92;101627.22;5095369;28;20491;-62
2023/06/08 09:06:50;;;;;;;21.33;8.48;;;;;;;26.57;40.62;101624.28;5094865;28;20058;-62
2023/06/08 09:09:16;;;;;;;15.73;8.90;;;;;;;26.70;40.67;101630.06;5095556;28;20028;-62
2023/06/08 09:12:01;;;;;;;14.15;8.75;;;;;;;26.95;40.34;101629.84;5095165;28;20431;-62
2023/06/08 09:14:27;;;;;;;15.52;8.68;;;;;;;27.19;40.10;101633.28;5095174;28;20039;-61
2023/06/08 09:16:54;;;;;;;15.10;8.43;;;;;;;27.39;39.35;101630.53;5095115;28;20059;-62
2023/06/08 09:19:20;;;;;;;13.68;7.88;;;;;;;27.81;38.43;101626.75;5094917;28;20044;-62
2023/06/08 09:21:46;;;;;;;16.98;8.38;;;;;;;27.77;37.98;101622.41;5095011;28;20028;-62
2023/06/08 09:24:12;;;;;;;17.60;8.88;;;;;;;27.71;37.25;101620.00;5077032;28;20035;-62
2023/06/08 09:26:45;;;;;;;15.27;7.93;;;;;;;27.84;38.28;101614.88;5095030;28;20023;-62
2023/06/08 09:29:12;;;;;;;14.82;7.32;;;;;;;28.00;38.80;101614.97;5094924;28;20462;-62
2023/06/08 09:31:49;;;;;;;16.60;8.60;;;;;;;28.28;37.28;101611.75;5094857;28;20020;-62
2023/06/08 09:34:14;;;;;;;14.23;8.10;;;;;;;28.34;36.76;101608.69;5095009;28;20081;-62
2023/06/08 09:36:40;;;;;;;16.10;7.88;;;;;;;28.44;37.29;101601.88;5094660;28;20423;-62
2023/06/08 09:39:08;;;;;;;11.75;7.55;;;;;;;28.69;37.79;101612.31;5094728;28;20028;-64
2023/06/08 09:41:37;;;;;;;13.23;7.20;;;;;;;29.01;36.01;101607.94;5094968;28;20016;-62
2023/06/08 09:44:15;;;;;;;11.73;7.10;;;;;;;29.15;35.84;101613.47;5094755;28;20570;-62
2023/06/08 09:46:46;;;;;;;13.80;7.57;;;;;;;29.39;35.63;101613.97;5094620;28;20032;-62
2023/06/08 09:49:13;;;;;;;12.93;7.40;;;;;;;29.30;35.53;101606.31;5076010;28;20434;-62
2023/06/08 09:51:47;;;;;;;15.23;7.07;;;;;;;29.19;35.54;101604.19;5094397;28;20073;-63
2023/06/08 09:54:15;;;;;;;12.63;7.10;;;;;;;29.33;35.31;101613.44;5094323;28;20393;-62
2023/06/08 09:56:47;;;;;;;12.23;7.20;;;;;;;29.26;35.07;101604.75;5094529;28;20024;-62
2023/06/08 09:59:17;;;;;;;13.15;7.25;;;;;;;29.33;34.43;101606.13;5093993;28;20401;-63
2023/06/08 10:01:54;;;;;;;13.65;6.57;;;;;;;29.44;35.25;101597.38;5076205;28;20067;-62
2023/06/08 10:04:28;;;;;;;13.02;6.60;;;;;;;29.64;34.22;101601.75;5094521;28;20039;-62
2023/06/08 10:06:56;;;;;;;11.00;5.75;;;;;;;29.89;33.88;101599.34;5076157;28;20032;-62
2023/06/08 10:09:27;;;;;;;10.40;6.15;;;;;;;29.75;33.44;101595.66;5094346;28;20028;-62
2023/06/08 10:11:55;;;;;;;12.65;6.75;;;;;;;29.60;33.44;101595.59;5094236;28;20035;-62
2023/06/08 10:14:24;;;;;;;15.07;6.88;;;;;;;29.74;33.58;101592.06;5093880;28;20063;-62
2023/06/08 10:16:50;;;;;;;11.07;6.32;;;;;;;29.65;33.60;101592.59;5093921;28;20107;-62
2023/06/08 10:19:18;;;;;;;10.88;5.72;;;;;;;30.00;33.75;101592.38;5093561;28;20545;-62
2023/06/08 10:21:45;;;;;;;12.75;6.30;;;;;;;30.00;33.30;101586.94;5094101;28;20385;-62
2023/06/08 10:24:11;;;;;;;11.75;6.18;;;;;;;30.21;32.41;101582.97;5094087;28;20415;-62
2023/06/08 10:26:37;;;;;;;11.20;6.13;;;;;;;30.30;33.48;101574.22;5094015;28;20032;-62
2023/06/08 10:29:08;;;;;;;13.18;6.00;;;;;;;30.42;32.16;101573.47;5093764;28;20047;-62
2023/06/08 10:31:37;;;;;;;10.55;5.88;;;;;;;30.27;32.19;101578.97;5093831;28;20081;-62
2023/06/08 10:34:14;;;;;;;12.23;6.20;;;;;;;30.42;32.43;101573.47;5093580;28;20016;-62
2023/06/08 10:36:42;;;;;;;14.00;6.10;;;;;;;30.29;31.85;101575.19;5093898;28;20116;-62
2023/06/08 10:39:10;;;;;;;9.27;5.43;;;;;;;30.49;33.01;101578.53;5093580;28;20040;-62
2023/06/08 10:41:38;;;;;;;11.55;5.50;;;;;;;30.63;33.00;101578.59;5093728;28;20089;-62
2023/06/08 10:44:04;;;;;;;11.13;5.45;;;;;;;30.61;31.45;101583.25;5093552;28;20059;-62
2023/06/08 10:46:42;;;;;;;12.57;5.70;;;;;;;30.53;32.45;101583.72;5092873;28;20058;-62
2023/06/08 10:49:08;;;;;;;11.45;6.18;;;;;;;30.49;31.66;101578.53;5093491;28;20028;-62
2023/06/08 10:51:43;;;;;;;11.57;5.30;;;;;;;30.40;32.63;101569.06;5093410;28;20089;-62
2023/06/08 10:54:09;;;;;;;10.13;5.78;;;;;;;30.78;32.24;101566.75;5093359;28;20024;-62
2023/06/08 10:56:46;;;;;;;11.88;6.00;;;;;;;30.93;31.74;101565.78;5075120;28;20035;-61
2023/06/08 10:59:11;;;;;;;16.55;6.03;;;;;;;30.67;31.44;101564.66;5093616;28;20105;-60
2023/06/08 11:01:37;;;;;;;14.25;5.75;;;;;;;30.60;31.45;101562.41;5093255;28;20486;-60
2023/06/08 11:04:05;;;;;;;13.00;6.05;;;;;;;30.51;31.95;101563.84;5107641;28;20016;-60
2023/06/08 11:06:33;;;;;;;10.85;6.07;;;;;;;30.74;31.56;101556.13;5113360;28;20028;-61
2023/06/08 11:08:59;;;;;;;10.88;5.50;;;;;;;30.62;31.81;101552.25;5104074;28;20035;-61
2023/06/08 11:11:25;;;;;;;11.10;5.97;;;;;;;30.64;30.53;101551.22;5107918;28;20027;-60
2023/06/08 11:13:52;;;;;;;11.77;6.03;;;;;;;30.71;31.19;101542.63;5113315;28;20092;-61
2023/06/08 11:16:20;;;;;;;11.90;5.90;;;;;;;30.81;31.15;101541.13;5113304;28;20106;-61